Time;durP1;ratioP1;P1;durP2;ratioP2;P2;SDS_P1;SDS_P2;PMS_P1;PMS_P2;Temp;Humidity;BMP_temperature;BMP_pressure;BME280_temperature;BME280_humidity;BME280_pressure;Samples;Min_cycle;Max_cycle;Signal;HPM_P1;HPM_P2
2023/03/29 00:01:29;;;;;;;6.70;3.90;;;;;;;1.46;87.75;100519.91;10505270;28;20044;-77
2023/03/29 00:06:37;;;;;;;10.93;4.95;;;;;;;1.71;87.20;100520.22;10505818;28;20043;-76
2023/03/29 00:11:39;;;;;;;6.57;3.95;;;;;;;1.44;87.66;100516.41;10505538;28;20044;-77
2023/03/29 00:16:43;;;;;;;12.18;4.38;;;;;;;1.38;88.12;100499.94;10505863;28;20086;-76
2023/03/29 00:21:45;;;;;;;6.32;3.75;;;;;;;1.67;87.48;100497.69;10506128;28;20438;-77
2023/03/29 00:26:47;;;;;;;6.45;3.88;;;;;;;1.60;86.49;100490.72;10486691;28;20063;-77
2023/03/29 00:31:52;;;;;;;7.82;3.50;;;;;;;1.35;88.88;100505.06;10505152;28;20036;-77
2023/03/29 00:36:56;;;;;;;5.68;3.60;;;;;;;1.25;88.95;100492.00;10504593;28;20043;-75
2023/03/29 00:41:58;;;;;;;7.45;4.50;;;;;;;1.11;90.70;100480.59;10504307;28;20048;-76
2023/03/29 00:47:00;;;;;;;8.02;4.05;;;;;;;1.37;89.47;100464.50;10485812;28;20044;-76
2023/03/29 00:52:02;;;;;;;7.25;3.78;;;;;;;1.24;89.00;100466.97;10486985;28;20048;-76
2023/03/29 00:57:05;;;;;;;5.10;3.83;;;;;;;1.32;89.55;100455.81;10485314;28;20071;-77
2023/03/29 01:02:08;;;;;;;6.18;3.72;;;;;;;1.39;87.85;100463.69;10469556;28;20445;-77
2023/03/29 01:07:12;;;;;;;7.82;4.43;;;;;;;1.47;88.10;100462.06;10486377;28;20048;-77
2023/03/29 01:12:19;;;;;;;9.98;4.03;;;;;;;1.56;86.89;100463.03;10505061;28;20355;-77
2023/03/29 01:17:24;;;;;;;7.88;3.65;;;;;;;1.20;87.95;100448.78;10488624;28;20041;-77
2023/03/29 01:22:50;;;;;;;6.53;3.35;;;;;;;1.28;88.00;100439.38;10486629;28;20143;-78
2023/03/29 01:28:01;;;;;;;4.75;3.75;;;;;;;1.15;88.71;100427.13;10502415;28;20115;-76
2023/03/29 01:33:26;;;;;;;6.50;3.33;;;;;;;1.17;88.44;100423.72;10494150;28;20040;-76
2023/03/29 01:38:38;;;;;;;6.43;3.60;;;;;;;0.88;90.18;100415.56;10466838;28;20471;-77
2023/03/29 01:43:55;;;;;;;12.55;4.47;;;;;;;0.84;91.32;100408.63;10500997;28;20067;-76
2023/03/29 01:49:10;;;;;;;6.45;3.67;;;;;;;0.82;90.78;100404.25;10482873;28;20462;-75
2023/03/29 01:54:18;;;;;;;5.97;3.10;;;;;;;0.69;91.81;100403.22;10482450;28;20044;-76
2023/03/29 01:59:27;;;;;;;6.35;3.42;;;;;;;0.54;93.04;100387.50;10483697;28;20041;-76
2023/03/29 02:04:35;;;;;;;5.05;3.20;;;;;;;0.57;93.54;100388.38;10481291;28;20437;-75
2023/03/29 02:09:38;;;;;;;6.60;3.03;;;;;;;0.46;92.89;100377.03;10480429;28;20044;-75
2023/03/29 02:14:40;;;;;;;4.25;3.10;;;;;;;0.93;90.22;100372.50;10498620;28;20541;-75
2023/03/29 02:19:44;;;;;;;8.45;2.95;;;;;;;1.29;86.61;100366.03;10499603;28;20127;-75
2023/03/29 02:24:49;;;;;;;6.15;2.65;;;;;;;1.17;85.56;100360.69;10498670;28;20042;-75
2023/03/29 02:29:53;;;;;;;4.70;2.43;;;;;;;1.06;86.39;100357.97;10481107;28;20048;-76
2023/03/29 02:35:03;;;;;;;4.20;2.67;;;;;;;0.98;86.41;100342.38;10498220;28;20037;-75
2023/03/29 02:40:06;;;;;;;9.15;2.88;;;;;;;0.92;87.60;100342.28;10463835;28;20502;-75
2023/03/29 02:45:14;;;;;;;4.97;2.67;;;;;;;0.95;87.52;100338.88;10480074;28;20032;-74
2023/03/29 02:50:17;;;;;;;7.85;2.53;;;;;;;1.08;86.48;100332.97;10479757;28;20135;-74
2023/03/29 02:55:23;;;;;;;6.68;2.95;;;;;;;1.04;86.48;100320.00;10498757;28;20040;-74
2023/03/29 03:00:25;;;;;;;5.75;2.05;;;;;;;1.25;84.63;100309.88;10479752;28;20605;-74
2023/03/29 03:05:29;;;;;;;6.53;2.65;;;;;;;0.99;86.06;100309.59;10480602;28;20033;-76
2023/03/29 03:10:33;;;;;;;5.47;2.22;;;;;;;0.82;87.78;100304.19;10479758;28;20135;-74
2023/03/29 03:15:36;;;;;;;7.53;3.10;;;;;;;1.07;85.85;100296.72;10497489;28;20040;-74
2023/03/29 03:20:38;;;;;;;5.78;2.60;;;;;;;0.74;88.20;100298.06;10481690;28;20425;-75
2023/03/29 03:25:40;;;;;;;4.20;2.55;;;;;;;0.93;86.69;100289.69;10487471;28;20063;-74
2023/03/29 03:30:42;;;;;;;4.97;2.53;;;;;;;0.90;87.22;100284.47;10487146;28;20052;-73
2023/03/29 03:36:05;;;;;;;6.68;2.50;;;;;;;0.94;86.23;100286.22;10506195;28;20052;-74
2023/03/29 03:41:09;;;;;;;8.77;3.15;;;;;;;0.66;88.75;100284.16;10486250;28;20055;-74
2023/03/29 03:46:12;;;;;;;5.97;2.88;;;;;;;0.80;87.69;100273.97;10486361;28;20090;-75
2023/03/29 03:51:14;;;;;;;7.03;2.53;;;;;;;1.17;85.47;100275.25;10486546;28;20075;-74
2023/03/29 03:56:16;;;;;;;8.57;2.85;;;;;;;0.94;86.79;100275.88;10485912;28;20128;-74
2023/03/29 04:01:42;;;;;;;9.27;3.10;;;;;;;1.07;85.72;100276.88;10504886;28;20048;-74
2023/03/29 04:06:50;;;;;;;5.53;2.78;;;;;;;0.91;86.56;100270.66;10485673;28;20059;-74
2023/03/29 04:12:18;;;;;;;11.48;2.70;;;;;;;1.07;85.96;100263.06;10480311;28;20052;-75
2023/03/29 04:17:20;;;;;;;6.43;3.20;;;;;;;0.79;87.54;100260.16;10484909;28;20383;-74
2023/03/29 04:22:33;;;;;;;5.13;2.65;;;;;;;0.92;86.48;100256.00;10500590;22;20060;-71
2023/03/29 04:27:35;;;;;;;3.83;2.67;;;;;;;0.95;87.20;100256.03;10501482;28;20051;-73
2023/03/29 04:32:44;;;;;;;6.80;3.10;;;;;;;1.08;86.41;100257.03;10482394;28;20051;-72
2023/03/29 04:37:47;;;;;;;9.18;3.17;;;;;;;0.97;87.27;100252.63;10481437;28;20045;-72
2023/03/29 04:42:50;;;;;;;4.65;2.75;;;;;;;0.91;87.66;100249.09;10480632;28;20055;-72
2023/03/29 04:47:58;;;;;;;6.55;3.97;;;;;;;1.17;86.66;100237.28;10481835;28;20092;-72
2023/03/29 04:53:00;;;;;;;;;;;;;;;1.22;85.87;100251.13;10503314;28;20045;-72
2023/03/29 04:58:03;;;;;;;9.52;4.43;;;;;;;1.37;85.38;100239.16;10502104;28;20377;-72
2023/03/29 05:03:12;;;;;;;10.82;4.93;;;;;;;1.35;85.65;100236.56;10483706;28;20047;-72
2023/03/29 05:08:26;;;;;;;8.95;4.78;;;;;;;1.41;85.92;100230.56;10482836;28;20045;-72
2023/03/29 05:13:41;;;;;;;6.60;3.83;;;;;;;1.58;84.21;100220.34;10485742;28;20048;-72
2023/03/29 05:18:43;;;;;;;8.73;4.68;;;;;;;1.45;86.35;100211.63;10482749;28;20087;-72
2023/03/29 05:23:45;;;;;;;6.20;4.82;;;;;;;1.54;85.94;100210.81;10482194;28;20049;-72
2023/03/29 05:28:51;;;;;;;8.88;4.88;;;;;;;1.47;86.32;100209.91;10500323;28;20052;-72
2023/03/29 05:33:53;;;;;;;9.25;5.25;;;;;;;1.59;85.94;100207.41;10482168;28;20498;-72
2023/03/29 05:38:55;;;;;;;7.97;5.15;;;;;;;1.91;83.89;100204.19;10464813;28;20048;-72
2023/03/29 05:43:58;;;;;;;7.45;4.55;;;;;;;2.05;82.12;100201.66;10480253;28;20444;-72
2023/03/29 05:49:02;;;;;;;10.30;5.25;;;;;;;2.19;82.29;100203.47;10480255;28;20048;-72
2023/03/29 05:54:23;;;;;;;9.18;5.40;;;;;;;2.27;80.50;100206.09;10480705;28;20049;-72
2023/03/29 05:59:27;;;;;;;8.38;5.30;;;;;;;2.08;82.16;100210.34;10481169;28;20048;-71
2023/03/29 06:04:30;;;;;;;9.50;4.22;;;;;;;2.18;81.46;100212.09;10480381;28;20103;-71
2023/03/29 06:09:53;;;;;;;9.10;5.28;;;;;;;1.94;83.13;100210.22;10457598;28;20059;-71
2023/03/29 06:14:57;;;;;;;9.95;6.20;;;;;;;2.06;83.04;100218.94;10479981;28;20090;-71
2023/03/29 06:20:10;;;;;;;10.45;5.13;;;;;;;2.40;80.53;100218.25;10480891;28;20040;-70
2023/03/29 06:25:16;;;;;;;8.35;4.68;;;;;;;2.51;81.26;100207.91;10480582;28;20047;-70
2023/03/29 06:30:20;;;;;;;7.25;4.90;;;;;;;2.85;78.21;100210.63;10479891;28;20055;-71
2023/03/29 06:35:26;;;;;;;15.70;5.30;;;;;;;2.71;78.99;100208.00;10481114;28;20041;-72
2023/03/29 06:40:37;;;;;;;8.32;4.75;;;;;;;2.69;79.99;100209.69;10482050;28;20429;-72
2023/03/29 06:45:39;;;;;;;10.50;4.85;;;;;;;2.63;80.54;100202.78;10481537;28;20036;-72
2023/03/29 06:50:53;;;;;;;8.18;4.20;;;;;;;3.07;79.59;100206.34;10481110;28;20083;-72
2023/03/29 06:55:58;;;;;;;;;;;;;;;3.08;78.91;100203.72;10484774;28;20051;-72
2023/03/29 07:01:16;;;;;;;12.15;4.40;;;;;;;3.00;78.04;100205.44;10508308;28;20004;-71
2023/03/29 07:06:33;;;;;;;6.27;4.03;;;;;;;3.21;78.62;100205.47;10489084;28;20585;-71
2023/03/29 07:11:35;;;;;;;7.97;4.43;;;;;;;3.48;79.72;100188.16;10489233;28;20041;-71
2023/03/29 07:17:04;;;;;;;7.63;5.40;;;;;;;3.72;80.38;100192.47;10502656;28;20094;-71
2023/03/29 07:22:09;;;;;;;16.27;5.18;;;;;;;4.01;78.02;100193.28;10490225;28;20119;-71
2023/03/29 07:27:21;;;;;;;6.28;4.00;;;;;;;3.98;79.25;100193.28;10473225;28;20090;-71
2023/03/29 07:32:23;;;;;;;5.97;4.40;;;;;;;4.22;78.85;100192.34;10471414;28;20048;-71
2023/03/29 07:37:45;;;;;;;6.45;3.70;;;;;;;4.53;74.56;100193.09;10487177;28;20051;-71
2023/03/29 07:42:51;;;;;;;10.95;3.80;;;;;;;4.50;76.51;100205.25;10486286;28;20045;-71
2023/03/29 07:47:57;;;;;;;7.25;3.72;;;;;;;4.65;75.60;100207.78;10488542;28;20139;-70
2023/03/29 07:53:02;;;;;;;10.23;4.47;;;;;;;4.30;79.16;100202.75;10490361;28;20050;-74
2023/03/29 07:58:05;;;;;;;6.30;3.60;;;;;;;4.69;79.80;100198.22;10488768;28;20051;-74
2023/03/29 08:03:11;;;;;;;8.10;3.70;;;;;;;4.42;75.76;100205.28;10488832;28;20044;-73
2023/03/29 08:08:14;;;;;;;6.07;2.67;;;;;;;4.47;74.47;100211.34;10489987;28;20401;-75
2023/03/29 08:13:24;;;;;;;8.30;3.75;;;;;;;4.51;74.55;100201.75;10488500;28;20044;-74
2023/03/29 08:19:01;;;;;;;7.07;3.10;;;;;;;4.72;73.20;100206.88;10431438;28;20052;-73
2023/03/29 08:24:20;;;;;;;6.90;3.72;;;;;;;4.57;76.22;100208.69;10482279;28;20053;-73
2023/03/29 08:29:28;;;;;;;7.63;4.10;;;;;;;4.66;75.46;100212.13;10489850;28;20068;-74
2023/03/29 08:34:30;;;;;;;7.45;4.20;;;;;;;4.48;76.80;100202.66;10487926;28;20127;-74
2023/03/29 08:39:51;;;;;;;9.30;3.50;;;;;;;4.65;75.13;100199.97;10505698;28;20048;-74
2023/03/29 08:45:38;;;;;;;5.72;3.47;;;;;;;4.62;76.52;100192.19;10503478;28;20040;-74
2023/03/29 08:50:51;;;;;;;4.63;4.22;;;;;;;4.89;79.67;100183.34;10490392;28;20044;-73
2023/03/29 08:55:57;;;;;;;4.45;3.78;;;;;;;5.16;79.47;100190.09;10487747;28;20410;-74
2023/03/29 09:01:19;;;;;;;5.07;3.90;;;;;;;5.41;78.08;100185.56;10489236;28;20406;-74
2023/03/29 09:06:27;;;;;;;3.88;2.97;;;;;;;5.62;75.30;100179.28;10488137;28;20040;-72
2023/03/29 09:11:58;;;;;;;3.97;3.50;;;;;;;5.63;77.20;100178.44;10489514;28;20563;-73
2023/03/29 09:17:31;;;;;;;4.72;3.58;;;;;;;5.65;74.55;100170.59;10485170;28;20403;-73
2023/03/29 09:23:05;;;;;;;7.25;4.32;;;;;;;5.93;76.15;100160.75;10480420;28;20044;-73
2023/03/29 09:28:25;;;;;;;16.58;4.82;;;;;;;5.86;73.50;100154.72;10440028;28;20576;-71
2023/03/29 09:33:55;;;;;;;6.68;3.90;;;;;;;6.13;75.25;100153.56;10458572;28;20049;-71
2023/03/29 09:39:03;;;;;;;8.25;3.88;;;;;;;6.32;73.24;100160.28;10442506;28;20052;-72
2023/03/29 09:44:13;;;;;;;3.67;3.37;;;;;;;6.50;72.85;100150.50;10442253;28;20048;-72
2023/03/29 09:49:38;;;;;;;;;;;;;;;6.42;72.67;100147.13;10460831;28;20048;-72
2023/03/29 09:54:41;;;;;;;4.30;3.35;;;;;;;6.57;72.73;100144.31;10444072;28;19927;-73
2023/03/29 10:00:06;;;;;;;4.47;3.92;;;;;;;6.77;71.57;100146.63;10459739;28;20057;-73
2023/03/29 10:05:16;;;;;;;5.00;3.88;;;;;;;7.14;71.18;100136.50;10458081;28;20521;-73
2023/03/29 10:10:23;;;;;;;4.32;3.13;;;;;;;7.55;68.62;100133.16;10457762;28;20064;-72
2023/03/29 10:15:28;;;;;;;6.70;3.85;;;;;;;7.48;68.29;100134.19;10460167;28;20037;-72
2023/03/29 10:20:35;;;;;;;4.40;3.25;;;;;;;7.56;67.15;100129.66;10459291;28;20049;-72
2023/03/29 10:25:40;;;;;;;5.63;3.70;;;;;;;7.65;67.22;100130.38;10491195;23;20044;-74
2023/03/29 10:30:51;;;;;;;5.85;3.40;;;;;;;7.53;68.40;100121.88;10482674;28;20055;-75
2023/03/29 10:35:56;;;;;;;4.45;3.38;;;;;;;7.81;66.52;100121.38;10498422;28;20032;-76
2023/03/29 10:41:11;;;;;;;3.78;2.88;;;;;;;7.76;68.31;100107.50;10480266;28;20048;-74
2023/03/29 10:46:40;;;;;;;4.65;3.40;;;;;;;7.57;68.28;100105.25;10497911;28;20047;-75
2023/03/29 10:51:48;;;;;;;3.60;2.88;;;;;;;8.31;66.77;100099.38;10497831;28;20055;-74
2023/03/29 10:57:02;;;;;;;3.42;2.15;;;;;;;8.39;63.57;100103.66;10498152;28;20040;-74
2023/03/29 11:02:13;;;;;;;3.15;2.10;;;;;;;8.44;63.13;100100.03;10480451;28;20079;-74
2023/03/29 11:07:27;;;;;;;3.50;2.40;;;;;;;8.52;61.20;100084.13;10498585;28;20045;-74
2023/03/29 11:12:43;;;;;;;2.08;1.85;;;;;;;8.69;60.62;100078.53;10497430;28;20044;-74
2023/03/29 11:18:21;;;;;;;3.33;2.22;;;;;;;8.63;61.10;100070.78;10498039;28;20056;-74
2023/03/29 11:23:42;;;;;;;2.28;2.03;;;;;;;8.64;60.46;100078.63;10492385;28;20064;-74
2023/03/29 11:29:06;;;;;;;3.80;2.63;;;;;;;8.75;60.77;100063.50;10497052;28;20036;-74
2023/03/29 11:34:29;;;;;;;3.95;2.42;;;;;;;9.00;60.58;100045.41;10497367;28;20119;-74
2023/03/29 11:39:43;;;;;;;2.35;1.95;;;;;;;9.13;58.95;100050.38;10498301;28;20395;-74
2023/03/29 11:44:50;;;;;;;2.05;1.60;;;;;;;9.18;58.10;100048.47;10504246;28;20422;-75
2023/03/29 11:49:57;;;;;;;2.63;2.22;;;;;;;9.19;59.14;100047.56;10505794;28;20072;-73
2023/03/29 11:55:12;;;;;;;2.50;1.92;;;;;;;9.36;58.69;100040.13;10504392;28;20043;-74
2023/03/29 12:00:18;;;;;;;2.15;1.98;;;;;;;9.71;57.14;100031.28;10504917;28;20119;-75
2023/03/29 12:05:31;;;;;;;3.43;2.10;;;;;;;9.73;56.93;100031.22;10485376;28;20049;-75
2023/03/29 12:10:41;;;;;;;2.45;1.80;;;;;;;9.98;55.37;100023.50;10503285;28;20087;-75
2023/03/29 12:16:15;;;;;;;2.25;2.05;;;;;;;10.19;55.15;100016.78;10504415;28;20115;-75
2023/03/29 12:21:22;;;;;;;3.60;1.98;;;;;;;10.27;54.98;100014.78;10503175;28;20386;-74
2023/03/29 12:26:33;;;;;;;2.35;2.08;;;;;;;10.28;56.69;100006.00;10482912;28;20036;-75
2023/03/29 12:32:12;;;;;;;3.50;2.42;;;;;;;9.93;56.25;100002.66;10484383;28;20617;-75
2023/03/29 12:37:31;;;;;;;5.47;4.38;;;;;;;10.60;56.53;99995.31;10479902;28;20037;-74
2023/03/29 12:42:56;;;;;;;6.47;5.97;;;;;;;10.56;56.67;99987.59;10478192;28;20061;-75
2023/03/29 12:48:21;;;;;;;7.35;6.65;;;;;;;10.73;57.21;99977.38;10471748;28;20033;-74
2023/03/29 12:53:44;;;;;;;6.90;6.27;;;;;;;10.56;56.85;99980.56;10502971;28;20062;-75
2023/03/29 12:58:52;;;;;;;7.60;6.00;;;;;;;10.55;56.50;99981.47;10443080;28;20280;-74
2023/03/29 13:04:00;;;;;;;9.73;8.85;;;;;;;10.29;57.13;99977.06;10442637;28;20457;-74
2023/03/29 13:09:20;;;;;;;10.60;9.68;;;;;;;9.91;59.33;99965.06;10484346;28;20044;-74
2023/03/29 13:14:28;;;;;;;10.93;10.00;;;;;;;9.57;60.13;99966.06;10483220;28;20052;-74
2023/03/29 13:19:42;;;;;;;10.27;9.48;;;;;;;9.51;61.48;99968.00;10501986;28;20434;-74
2023/03/29 13:25:13;;;;;;;12.65;9.90;;;;;;;9.48;60.35;99947.09;10481029;28;20047;-74
2023/03/29 13:30:33;;;;;;;10.95;10.05;;;;;;;9.34;61.03;99953.59;10500819;28;20048;-74
2023/03/29 13:35:41;;;;;;;12.07;9.88;;;;;;;9.53;60.68;99958.31;10482661;28;20040;-74
2023/03/29 13:40:45;;;;;;;11.48;10.57;;;;;;;9.57;60.56;99962.59;10501340;28;20044;-74
2023/03/29 13:45:56;;;;;;;14.77;10.43;;;;;;;9.21;62.41;99946.97;10500407;28;20119;-74
2023/03/29 13:51:07;;;;;;;10.75;9.85;;;;;;;9.51;61.54;99945.22;10499241;28;20044;-74
2023/03/29 13:56:15;;;;;;;12.02;10.93;;;;;;;9.68;62.33;99939.50;10500515;28;20039;-75
2023/03/29 14:01:30;;;;;;;19.55;17.67;;;;;;;9.96;62.14;99931.66;10465097;28;20094;-74
2023/03/29 14:06:35;;;;;;;13.40;11.77;;;;;;;9.82;61.68;99934.69;10499524;28;20050;-74
2023/03/29 14:11:37;;;;;;;15.98;13.85;;;;;;;9.82;62.75;99931.19;10501233;28;20044;-74
2023/03/29 14:16:40;;;;;;;14.10;12.95;;;;;;;9.71;63.49;99925.44;10484363;28;20049;-74
2023/03/29 14:21:43;;;;;;;12.48;11.40;;;;;;;9.65;62.69;99929.09;10501270;28;20453;-74
2023/03/29 14:26:46;;;;;;;12.70;10.80;;;;;;;9.92;60.67;99924.78;10483233;28;20076;-74
2023/03/29 14:31:48;;;;;;;9.25;8.45;;;;;;;9.51;63.54;99919.00;10500095;28;20048;-73
2023/03/29 14:36:52;;;;;;;9.77;8.95;;;;;;;9.55;65.86;99910.13;10499278;28;20064;-73
2023/03/29 14:41:58;;;;;;;7.43;6.63;;;;;;;10.01;62.05;99903.50;10499562;28;20116;-73
2023/03/29 14:47:02;;;;;;;7.53;6.78;;;;;;;10.14;63.16;99896.09;10499444;28;20040;-75
2023/03/29 14:52:04;;;;;;;5.50;5.00;;;;;;;10.19;63.27;99909.06;10475847;28;20064;-74
2023/03/29 14:57:19;;;;;;;6.32;5.72;;;;;;;10.38;61.92;99904.09;10481900;28;20048;-74
2023/03/29 15:02:28;;;;;;;8.50;7.55;;;;;;;10.68;59.17;99894.34;10481553;28;20456;-75
2023/03/29 15:07:32;;;;;;;9.80;8.80;;;;;;;10.56;60.58;99901.72;10498566;28;20116;-75
2023/03/29 15:12:36;;;;;;;9.32;8.00;;;;;;;10.44;61.85;99888.97;10479362;28;20056;-74
2023/03/29 15:17:41;;;;;;;10.57;9.50;;;;;;;10.14;64.10;99887.31;10501587;28;20457;-75
2023/03/29 15:22:59;;;;;;;10.13;9.15;;;;;;;10.41;63.77;99880.38;10472108;28;20098;-72
2023/03/29 15:28:01;;;;;;;20.27;17.13;;;;;;;10.18;63.75;99863.56;10505313;28;20032;-72
2023/03/29 15:33:15;;;;;;;8.77;7.88;;;;;;;10.67;61.94;99858.41;10504004;28;20075;-72
2023/03/29 15:38:18;;;;;;;9.80;7.07;;;;;;;10.64;63.34;99856.78;10506069;28;20043;-71
2023/03/29 15:43:29;;;;;;;7.43;6.72;;;;;;;10.75;62.48;99853.75;10504572;28;20044;-75
2023/03/29 15:48:32;;;;;;;6.72;6.07;;;;;;;10.77;61.97;99844.91;10488513;28;20051;-74
2023/03/29 15:53:35;;;;;;;7.63;6.93;;;;;;;10.56;62.58;99845.66;10504245;28;20083;-75
2023/03/29 15:58:37;;;;;;;9.07;8.27;;;;;;;10.44;63.79;99835.56;10489244;28;20076;-75
2023/03/29 16:03:40;;;;;;;7.88;7.18;;;;;;;10.52;65.00;99844.03;10472701;28;20110;-76
2023/03/29 16:08:51;;;;;;;7.03;6.43;;;;;;;10.37;66.09;99834.06;10476128;28;20119;-77
2023/03/29 16:13:56;;;;;;;7.22;5.80;;;;;;;10.21;67.82;99836.31;10506485;28;20045;-74
2023/03/29 16:18:58;;;;;;;5.95;5.35;;;;;;;10.61;65.72;99828.81;10505795;28;20078;-74
2023/03/29 16:24:00;;;;;;;5.95;4.30;;;;;;;10.56;65.65;99820.22;10506215;28;20052;-74
2023/03/29 16:29:02;;;;;;;6.85;4.75;;;;;;;10.44;66.61;99817.16;10497900;22;20048;-74
2023/03/29 16:34:04;;;;;;;5.75;3.80;;;;;;;10.44;66.59;99819.78;10486614;28;20055;-73
2023/03/29 16:39:06;;;;;;;4.88;4.47;;;;;;;10.52;65.83;99816.00;10504852;28;20040;-73
2023/03/29 16:44:14;;;;;;;5.03;4.55;;;;;;;10.38;66.89;99823.50;10504335;28;20048;-73
2023/03/29 16:49:16;;;;;;;5.53;4.88;;;;;;;10.41;67.18;99812.91;10504155;28;20040;-73
2023/03/29 16:54:18;;;;;;;4.88;4.47;;;;;;;10.39;67.97;99814.69;10503694;28;20089;-73
2023/03/29 16:59:20;;;;;;;5.80;4.68;;;;;;;10.28;67.99;99804.56;10504571;28;20037;-73
2023/03/29 17:04:22;;;;;;;5.00;4.50;;;;;;;10.33;68.18;99809.66;10502487;28;20129;-73
2023/03/29 17:09:24;;;;;;;4.30;3.88;;;;;;;9.99;70.45;99816.00;10502135;28;20047;-73
2023/03/29 17:14:28;;;;;;;4.07;3.67;;;;;;;9.86;71.30;99804.19;10501186;28;20040;-73
2023/03/29 17:19:30;;;;;;;5.05;4.65;;;;;;;9.84;71.58;99806.03;10501502;28;20107;-73
2023/03/29 17:24:32;;;;;;;7.07;5.90;;;;;;;9.68;72.83;99808.25;10502071;28;20047;-73
2023/03/29 17:29:34;;;;;;;8.43;7.57;;;;;;;9.47;73.45;99812.41;10500937;28;20044;-73
2023/03/29 17:34:36;;;;;;;7.90;7.10;;;;;;;9.94;71.08;99806.56;10483420;28;20493;-73
2023/03/29 17:39:37;;;;;;;12.05;8.43;;;;;;;9.74;72.08;99802.84;10499669;28;20059;-73
2023/03/29 17:44:39;;;;;;;11.63;8.38;;;;;;;9.33;74.41;99804.09;10501257;28;20075;-72
2023/03/29 17:49:41;;;;;;;8.80;8.00;;;;;;;9.09;76.15;99806.56;10500866;28;20406;-72
2023/03/29 17:54:42;;;;;;;8.88;7.97;;;;;;;9.23;75.70;99798.28;10499796;28;20067;-73
2023/03/29 17:59:44;;;;;;;8.10;7.50;;;;;;;9.29;75.37;99810.34;10500008;28;20048;-72
2023/03/29 18:04:46;;;;;;;8.55;7.60;;;;;;;9.35;74.98;99818.06;10500951;28;20044;-73
2023/03/29 18:09:48;;;;;;;10.40;9.35;;;;;;;9.49;74.55;99815.00;10484820;28;20036;-73
2023/03/29 18:14:51;;;;;;;9.50;8.45;;;;;;;9.30;75.85;99817.34;10499297;28;20036;-73
2023/03/29 18:19:52;;;;;;;11.35;10.25;;;;;;;9.19;75.98;99829.91;10502463;28;20033;-72
2023/03/29 18:24:55;;;;;;;11.90;10.90;;;;;;;8.98;76.57;99832.22;10502649;28;20044;-73
2023/03/29 18:29:57;;;;;;;12.70;11.70;;;;;;;8.87;78.56;99822.97;10503581;28;20054;-73
2023/03/29 18:35:01;;;;;;;13.32;12.13;;;;;;;9.01;78.02;99831.28;10501416;28;20455;-73
2023/03/29 18:40:06;;;;;;;12.90;11.80;;;;;;;8.78;78.47;99831.94;10494740;28;20091;-73
2023/03/29 18:45:09;;;;;;;13.00;11.70;;;;;;;8.83;78.67;99845.78;10502177;28;20045;-73
2023/03/29 18:50:12;;;;;;;12.57;11.48;;;;;;;8.86;78.69;99853.56;10502125;28;20027;-73
2023/03/29 18:55:14;;;;;;;13.77;12.38;;;;;;;8.76;79.24;99854.69;10510002;28;20047;-73
2023/03/29 19:00:16;;;;;;;12.90;11.90;;;;;;;8.47;80.62;99848.47;10491428;28;20470;-72
2023/03/29 19:05:17;;;;;;;13.13;12.13;;;;;;;8.34;81.40;99849.66;10490858;28;20498;-74
2023/03/29 19:10:20;;;;;;;13.88;12.75;;;;;;;8.17;82.60;99846.59;10509737;28;20049;-72
2023/03/29 19:15:21;;;;;;;13.43;12.10;;;;;;;8.15;83.06;99849.28;10508492;28;20041;-74
2023/03/29 19:20:24;;;;;;;12.73;11.65;;;;;;;8.11;83.89;99846.78;10507780;28;20041;-72
2023/03/29 19:25:26;;;;;;;13.20;12.20;;;;;;;8.22;83.70;99842.97;10507210;28;20052;-72
2023/03/29 19:30:29;;;;;;;12.32;11.32;;;;;;;8.07;84.05;99843.38;10509695;28;20037;-72
2023/03/29 19:35:31;;;;;;;13.43;11.82;;;;;;;8.45;82.05;99833.69;10509479;28;20060;-74
2023/03/29 19:40:33;;;;;;;11.93;10.88;;;;;;;8.15;83.61;99833.56;10506566;28;20067;-74
2023/03/29 19:45:35;;;;;;;12.65;11.50;;;;;;;8.17;83.22;99830.91;10507222;28;20119;-73
2023/03/29 19:50:41;;;;;;;12.60;11.60;;;;;;;8.02;83.90;99821.69;10471855;28;20517;-73
2023/03/29 19:55:43;;;;;;;11.87;10.87;;;;;;;7.75;85.36;99817.97;10489464;28;20052;-73
2023/03/29 20:00:46;;;;;;;12.38;11.38;;;;;;;7.74;85.27;99817.09;10509243;28;20641;-72
2023/03/29 20:05:47;;;;;;;11.52;10.55;;;;;;;7.66;85.49;99807.69;10505667;28;20051;-71
2023/03/29 20:11:00;;;;;;;12.20;11.10;;;;;;;7.78;85.36;99807.41;10471634;28;20051;-71
2023/03/29 20:16:13;;;;;;;11.23;10.07;;;;;;;7.79;85.07;99801.28;10487909;28;20037;-72
2023/03/29 20:21:17;;;;;;;11.93;11.00;;;;;;;7.97;83.45;99797.34;10504827;28;20068;-72
2023/03/29 20:26:18;;;;;;;11.88;10.88;;;;;;;7.93;83.41;99793.13;10503996;28;20037;-72
2023/03/29 20:31:20;;;;;;;11.02;10.07;;;;;;;8.05;82.75;99784.94;10504994;28;20044;-71
2023/03/29 20:36:22;;;;;;;10.57;9.68;;;;;;;7.74;84.24;99782.22;10504626;28;20090;-72
2023/03/29 20:41:24;;;;;;;10.70;9.75;;;;;;;7.50;86.30;99778.44;10505148;28;20045;-71
2023/03/29 20:46:32;;;;;;;10.43;9.48;;;;;;;7.74;85.87;99767.38;10506418;28;20036;-71
2023/03/29 20:51:34;;;;;;;10.60;9.70;;;;;;;7.92;84.05;99747.75;10505455;28;20047;-71
2023/03/29 20:56:40;;;;;;;9.38;8.52;;;;;;;7.98;82.73;99757.22;10503832;28;20043;-71
2023/03/29 21:01:43;;;;;;;10.43;9.43;;;;;;;7.50;86.02;99737.44;10503710;28;20463;-71
2023/03/29 21:06:48;;;;;;;9.77;8.88;;;;;;;7.45;86.33;99734.09;10501883;28;20045;-71
2023/03/29 21:12:03;;;;;;;10.00;9.20;;;;;;;7.44;86.20;99727.16;10485845;28;20041;-70
2023/03/29 21:17:08;;;;;;;10.35;9.40;;;;;;;7.33;86.51;99727.38;10484493;28;20086;-71
2023/03/29 21:22:12;;;;;;;9.65;8.82;;;;;;;7.13;88.29;99731.34;10503250;28;20142;-71
2023/03/29 21:27:14;;;;;;;12.18;11.18;;;;;;;7.25;88.22;99720.63;10502427;28;20037;-71
2023/03/29 21:32:16;;;;;;;11.02;10.13;;;;;;;7.38;87.11;99715.97;10484058;28;20052;-70
2023/03/29 21:37:17;;;;;;;11.13;10.13;;;;;;;7.56;86.01;99710.28;10501315;28;20036;-71
2023/03/29 21:42:19;;;;;;;10.70;9.90;;;;;;;7.53;86.23;99692.94;10501907;28;20052;-71
2023/03/29 21:47:21;;;;;;;10.93;9.82;;;;;;;7.33;86.32;99709.09;10500683;28;20047;-71
2023/03/29 21:52:23;;;;;;;10.50;9.40;;;;;;;7.47;85.62;99700.03;10501972;28;20048;-71
2023/03/29 21:57:24;;;;;;;9.70;8.80;;;;;;;7.10;87.22;99695.69;10500629;28;20037;-70
2023/03/29 22:02:26;;;;;;;10.10;9.30;;;;;;;7.22;86.79;99692.81;10501091;28;20114;-71
2023/03/29 22:07:28;;;;;;;10.48;9.57;;;;;;;7.24;86.17;99701.47;10501067;28;20047;-71
2023/03/29 22:12:33;;;;;;;9.18;8.40;;;;;;;6.86;88.05;99691.88;10484171;28;20048;-71
2023/03/29 22:17:35;;;;;;;11.20;9.60;;;;;;;6.96;87.22;99680.34;10501547;28;20094;-71
2023/03/29 22:22:49;;;;;;;10.57;9.57;;;;;;;6.91;88.02;99686.56;10500006;28;20075;-70
2023/03/29 22:27:51;;;;;;;10.07;9.25;;;;;;;6.79;89.08;99672.88;10502873;28;20043;-73
2023/03/29 22:32:52;;;;;;;9.68;8.75;;;;;;;6.85;88.61;99677.09;10499903;28;20486;-73
2023/03/29 22:37:54;;;;;;;9.93;9.05;;;;;;;6.87;87.77;99674.47;10501043;28;20036;-72
2023/03/29 22:42:56;;;;;;;10.77;9.77;;;;;;;6.76;89.49;99675.53;10500913;28;20093;-72
2023/03/29 22:47:58;;;;;;;9.68;8.77;;;;;;;6.72;89.20;99671.28;10500520;28;20099;-72
2023/03/29 22:53:00;;;;;;;9.32;8.63;;;;;;;6.64;90.38;99673.22;10465714;28;20524;-73
2023/03/29 22:58:02;;;;;;;10.10;9.27;;;;;;;6.99;87.95;99667.19;10499359;28;20486;-73
2023/03/29 23:03:05;;;;;;;9.43;8.35;;;;;;;6.98;87.56;99656.78;10500678;28;20049;-73
2023/03/29 23:08:07;;;;;;;8.75;7.90;;;;;;;6.92;88.75;99665.63;10483577;28;20048;-72
2023/03/29 23:13:09;;;;;;;9.38;8.52;;;;;;;6.75;89.07;99652.06;10500387;28;20127;-72
2023/03/29 23:18:14;;;;;;;9.35;8.48;;;;;;;7.05;87.90;99655.75;10499491;28;20033;-72
2023/03/29 23:23:18;;;;;;;9.52;8.43;;;;;;;6.97;88.29;99649.84;10499163;28;20127;-72
2023/03/29 23:28:23;;;;;;;9.00;8.10;;;;;;;6.54;90.90;99651.63;10498611;28;20033;-73
2023/03/29 23:33:25;;;;;;;8.75;7.93;;;;;;;6.47;92.59;99646.59;10500471;28;20059;-72
2023/03/29 23:38:27;;;;;;;7.90;7.20;;;;;;;6.77;90.01;99627.66;10484224;28;20422;-72
2023/03/29 23:43:32;;;;;;;7.93;7.22;;;;;;;6.97;88.45;99632.41;10506269;28;20040;-72
2023/03/29 23:48:34;;;;;;;7.80;7.10;;;;;;;7.08;87.85;99640.88;10487645;28;20037;-72